createdAt,value
2019-06-20T00:01:30.740Z,12.17
2019-06-20T00:04:01.036Z,5.60
2019-06-20T00:06:31.430Z,7.37
2019-06-20T00:09:01.716Z,4.37
2019-06-20T00:11:32.119Z,4.60
2019-06-20T00:14:02.444Z,5.57
2019-06-20T00:16:32.860Z,4.43
2019-06-20T00:19:03.219Z,8.80
2019-06-20T00:21:33.533Z,8.53
2019-06-20T00:24:03.896Z,6.67
2019-06-20T00:26:34.255Z,6.00
2019-06-20T00:29:04.626Z,5.57
2019-06-20T00:31:34.968Z,6.37
2019-06-20T00:34:05.404Z,5.77
2019-06-20T00:36:35.749Z,7.93
2019-06-20T00:39:07.587Z,7.33
2019-06-20T00:41:37.967Z,6.97
2019-06-20T00:44:08.255Z,5.70
2019-06-20T00:46:38.709Z,6.83
2019-06-20T00:49:09.205Z,5.90
2019-06-20T00:51:39.592Z,4.90
2019-06-20T00:54:10.071Z,6.77
2019-06-20T00:56:40.463Z,7.03
2019-06-20T00:59:10.743Z,4.13
2019-06-20T01:01:41.191Z,5.83
2019-06-20T01:04:11.535Z,6.53
2019-06-20T01:06:41.864Z,6.80
2019-06-20T01:09:12.253Z,5.53
2019-06-20T01:11:42.661Z,7.40
2019-06-20T01:14:12.993Z,5.33
2019-06-20T01:16:43.596Z,5.27
2019-06-20T01:19:14.415Z,5.13
2019-06-20T01:21:44.842Z,4.67
2019-06-20T01:24:15.228Z,4.77
2019-06-20T01:26:45.618Z,6.17
2019-06-20T01:29:16.021Z,3.87
2019-06-20T01:31:46.415Z,4.83
2019-06-20T01:34:16.850Z,4.10
2019-06-20T01:36:47.246Z,5.07
2019-06-20T01:39:17.631Z,6.57
2019-06-20T01:41:48.062Z,5.57
2019-06-20T01:44:18.512Z,6.93
2019-06-20T01:46:48.905Z,3.17
2019-06-20T01:49:19.242Z,8.87
2019-06-20T01:51:49.689Z,6.20
2019-06-20T01:54:20.212Z,4.53
2019-06-20T01:56:50.878Z,6.13
2019-06-20T01:59:21.189Z,4.47
2019-06-20T02:01:51.795Z,10.80
2019-06-20T02:04:22.381Z,3.97
2019-06-20T02:06:53.164Z,5.23
2019-06-20T02:09:24.117Z,5.73
2019-06-20T02:11:55.141Z,6.53
2019-06-20T02:14:25.809Z,5.47
2019-06-20T02:16:56.239Z,4.63
2019-06-20T02:19:26.582Z,4.03
2019-06-20T02:21:56.788Z,4.47
2019-06-20T02:24:27.304Z,4.70
2019-06-20T02:26:57.520Z,6.93
2019-06-20T02:29:27.914Z,5.70
2019-06-20T02:31:58.063Z,8.17
2019-06-20T02:34:28.340Z,7.37
2019-06-20T02:36:58.557Z,7.13
2019-06-20T02:39:28.803Z,5.27
2019-06-20T02:41:59.163Z,6.30
2019-06-20T02:44:30.800Z,7.50
2019-06-20T02:47:01.511Z,9.67
2019-06-20T02:49:31.829Z,8.40
2019-06-20T02:52:02.930Z,6.97
2019-06-20T02:54:33.223Z,9.63
2019-06-20T02:57:03.463Z,8.87
2019-06-20T02:59:33.749Z,7.97
2019-06-20T03:02:04.046Z,10.57
2019-06-20T03:04:34.596Z,9.43
2019-06-20T03:07:05.313Z,6.80
2019-06-20T03:09:35.714Z,6.23
2019-06-20T03:12:06.429Z,5.60
2019-06-20T03:14:45.558Z,9.73
2019-06-20T03:17:09.348Z,6.47
2019-06-20T03:19:40.143Z,7.73
2019-06-20T03:22:11.083Z,8.17
2019-06-20T03:24:41.897Z,7.27
2019-06-20T03:27:13.065Z,7.70
2019-06-20T03:29:43.621Z,7.43
2019-06-20T03:32:14.718Z,5.37
2019-06-20T03:34:45.632Z,4.67
2019-06-20T03:37:16.712Z,8.13
2019-06-20T03:39:47.789Z,5.67
2019-06-20T03:42:18.586Z,3.97
2019-06-20T03:45:01.636Z,9.03
2019-06-20T03:47:22.650Z,5.60
2019-06-20T03:49:53.860Z,4.60
2019-06-20T03:52:24.853Z,4.70
2019-06-20T03:54:55.529Z,4.90
2019-06-20T03:57:26.697Z,6.83
2019-06-20T03:59:57.834Z,7.03
2019-06-20T04:02:28.914Z,4.13
2019-06-20T04:05:00.584Z,4.53
2019-06-20T04:07:31.972Z,6.27
2019-06-20T04:10:03.064Z,5.90
2019-06-20T04:12:34.044Z,8.70
2019-06-20T04:15:17.796Z,4.87
2019-06-20T04:17:37.861Z,9.13
2019-06-20T04:20:08.865Z,11.00
2019-06-20T04:22:39.882Z,10.47
2019-06-20T04:25:11.053Z,5.80
2019-06-20T04:27:42.539Z,5.60
2019-06-20T04:30:13.565Z,8.67
2019-06-20T04:32:44.509Z,6.53
2019-06-20T04:35:15.963Z,5.60
2019-06-20T04:37:46.944Z,5.87
2019-06-20T04:40:18.156Z,8.73
2019-06-20T04:42:49.481Z,4.80
2019-06-20T04:45:44.510Z,5.93
2019-06-20T04:48:15.873Z,6.17
2019-06-20T04:50:46.658Z,6.63
2019-06-20T04:53:18.169Z,6.50
2019-06-20T04:55:49.653Z,7.13
2019-06-20T04:58:22.171Z,5.63
2019-06-20T05:00:53.280Z,8.87
2019-06-20T05:03:24.183Z,7.07
2019-06-20T05:05:55.725Z,6.67
2019-06-20T05:08:26.918Z,6.17
2019-06-20T05:10:58.020Z,6.20
2019-06-20T05:13:29.294Z,10.47
2019-06-20T05:16:00.957Z,9.60
2019-06-20T05:18:32.128Z,6.13
2019-06-20T05:21:03.211Z,7.17
2019-06-20T05:23:34.513Z,7.10
2019-06-20T05:26:05.615Z,10.33
2019-06-20T05:28:37.136Z,6.10
2019-06-20T05:31:08.231Z,6.37
2019-06-20T05:33:39.240Z,10.63
2019-06-20T05:36:10.590Z,6.60
2019-06-20T05:38:41.535Z,6.87
2019-06-20T05:41:12.389Z,6.47
2019-06-20T05:43:43.332Z,5.20
2019-06-20T05:46:14.097Z,7.07
2019-06-20T05:48:45.355Z,8.87
2019-06-20T05:51:16.186Z,5.67
2019-06-20T05:53:47.423Z,9.47
2019-06-20T05:56:18.171Z,16.13
2019-06-20T05:58:49.635Z,10.87
2019-06-20T06:01:21.353Z,8.87
2019-06-20T06:03:52.646Z,12.70
2019-06-20T06:06:23.691Z,8.20
2019-06-20T06:08:54.490Z,7.73
2019-06-20T06:11:25.392Z,8.30
2019-06-20T06:13:56.338Z,8.77
2019-06-20T06:16:28.478Z,10.53
2019-06-20T06:18:59.595Z,7.40
2019-06-20T06:21:30.477Z,7.47
2019-06-20T06:24:02.265Z,9.37
2019-06-20T06:26:33.388Z,13.00
2019-06-20T06:29:04.753Z,10.20
2019-06-20T06:31:35.646Z,14.07
2019-06-20T06:34:07.012Z,9.47
2019-06-20T06:36:38.101Z,8.80
2019-06-20T06:39:10.955Z,8.53
2019-06-20T06:41:41.836Z,11.10
2019-06-20T06:44:12.966Z,8.47
2019-06-20T06:46:52.110Z,8.80
2019-06-20T06:49:16.745Z,8.30
2019-06-20T06:51:47.998Z,8.47
2019-06-20T06:54:19.470Z,9.07
2019-06-20T06:56:50.645Z,10.97
2019-06-20T06:59:23.189Z,8.37
2019-06-20T07:01:54.431Z,9.43
2019-06-20T07:04:25.725Z,12.60
2019-06-20T07:06:56.594Z,10.80
2019-06-20T07:09:27.996Z,10.27
2019-06-20T07:11:58.950Z,9.70
2019-06-20T07:14:30.506Z,10.53
2019-06-20T07:17:01.843Z,12.57
2019-06-20T07:19:33.409Z,10.90
2019-06-20T07:22:05.198Z,11.80
2019-06-20T07:24:36.517Z,10.13
2019-06-20T07:27:07.580Z,10.80
2019-06-20T07:29:38.750Z,12.90
2019-06-20T07:32:09.793Z,11.77
2019-06-20T07:34:40.539Z,11.67
2019-06-20T07:37:11.519Z,12.87
2019-06-20T07:39:42.266Z,11.33
2019-06-20T07:42:13.200Z,11.57
2019-06-20T07:44:44.030Z,12.70
2019-06-20T07:47:17.916Z,13.10
2019-06-20T07:49:47.884Z,13.10
2019-06-20T07:52:18.971Z,12.90
2019-06-20T07:54:49.952Z,12.13
2019-06-20T07:57:20.848Z,13.17
2019-06-20T07:59:51.897Z,12.93
2019-06-20T08:02:23.084Z,13.23
2019-06-20T08:04:54.031Z,12.30
2019-06-20T08:07:24.872Z,10.93
2019-06-20T08:09:55.418Z,13.07
2019-06-20T08:12:26.392Z,11.93
2019-06-20T08:15:11.016Z,13.90
2019-06-20T08:17:35.209Z,13.10
2019-06-20T08:20:02.971Z,12.57
2019-06-20T08:22:33.931Z,12.83
2019-06-20T08:25:06.200Z,11.60
2019-06-20T08:27:53.125Z,14.53
2019-06-20T08:30:26.128Z,12.47
2019-06-20T08:32:59.637Z,12.77
2019-06-20T08:35:31.816Z,14.63
2019-06-20T08:38:03.738Z,15.57
2019-06-20T08:40:41.175Z,13.33
2019-06-20T08:43:12.215Z,14.87
2019-06-20T08:45:44.888Z,13.77
2019-06-20T08:48:15.826Z,13.97
2019-06-20T08:50:46.922Z,12.37
2019-06-20T08:53:18.188Z,12.67
2019-06-20T08:55:50.026Z,12.97
2019-06-20T08:58:20.822Z,14.47
2019-06-20T09:00:52.510Z,13.50
2019-06-20T09:03:23.753Z,13.37
2019-06-20T09:05:55.465Z,14.33
2019-06-20T09:08:27.238Z,13.77
2019-06-20T09:10:57.904Z,16.47
2019-06-20T09:13:28.739Z,15.43
2019-06-20T09:16:00.826Z,13.80
2019-06-20T09:18:31.614Z,11.63
2019-06-20T09:21:02.245Z,11.37
2019-06-20T09:23:35.623Z,12.90
2019-06-20T09:26:08.196Z,11.93
2019-06-20T09:28:39.024Z,12.17
2019-06-20T09:31:09.667Z,12.40
2019-06-20T09:33:40.420Z,11.97
2019-06-20T09:36:11.142Z,10.43
2019-06-20T09:38:41.933Z,11.33
2019-06-20T09:41:12.714Z,12.07
2019-06-20T09:43:43.412Z,11.17
2019-06-20T09:46:14.182Z,11.33
2019-06-20T09:48:44.802Z,11.53
2019-06-20T09:51:15.546Z,10.50
2019-06-20T09:53:48.399Z,9.60
2019-06-20T09:56:18.755Z,9.97
2019-06-20T09:58:49.621Z,8.93
2019-06-20T10:01:22.036Z,10.07
2019-06-20T10:03:52.783Z,14.27
2019-06-20T10:06:23.539Z,10.33
2019-06-20T10:08:54.365Z,10.40
2019-06-20T10:11:25.460Z,11.37
2019-06-20T10:13:56.174Z,11.07
2019-06-20T10:16:26.832Z,10.80
2019-06-20T10:18:58.639Z,10.60
2019-06-20T10:21:29.354Z,9.97
2019-06-20T10:24:00.582Z,10.97
2019-06-20T10:26:31.477Z,11.77
2019-06-20T10:29:02.460Z,11.37
2019-06-20T10:31:33.325Z,12.13
2019-06-20T10:34:04.109Z,11.87
2019-06-20T10:36:35.396Z,10.60
2019-06-20T10:39:11.619Z,12.70
2019-06-20T10:41:44.661Z,11.60
2019-06-20T10:44:15.067Z,10.80
2019-06-20T10:46:47.215Z,9.87
2019-06-20T10:49:18.285Z,12.07
2019-06-20T10:51:49.645Z,11.30
2019-06-20T10:54:20.526Z,14.20
2019-06-20T10:56:51.281Z,15.20
2019-06-20T10:59:22.146Z,13.40
2019-06-20T11:01:53.058Z,10.87
2019-06-20T11:04:24.003Z,12.00
2019-06-20T11:06:55.099Z,12.37
2019-06-20T11:09:25.995Z,12.07
2019-06-20T11:11:57.467Z,11.87
2019-06-20T11:14:28.300Z,10.57
2019-06-20T11:17:00.507Z,12.90
2019-06-20T11:19:31.439Z,10.73
2019-06-20T11:22:02.093Z,9.67
2019-06-20T11:24:32.955Z,8.97
2019-06-20T11:27:03.940Z,9.63
2019-06-20T11:29:34.708Z,9.43
2019-06-20T11:32:05.631Z,9.37
2019-06-20T11:34:37.650Z,9.20
2019-06-20T11:37:08.881Z,8.50
2019-06-20T11:39:41.028Z,8.60
2019-06-20T11:42:11.773Z,8.80
2019-06-20T11:44:43.096Z,8.50
2019-06-20T11:47:13.819Z,9.20
2019-06-20T11:50:03.645Z,8.47
2019-06-20T11:52:38.557Z,8.80
2019-06-20T11:55:07.166Z,8.40
2019-06-20T11:57:37.853Z,8.83
2019-06-20T12:00:09.090Z,9.37
2019-06-20T12:02:41.140Z,9.40
2019-06-20T12:05:12.980Z,12.03
2019-06-20T12:07:47.865Z,9.87
2019-06-20T12:10:20.736Z,8.90
2019-06-20T12:12:51.646Z,10.23
2019-06-20T12:15:23.090Z,10.53
2019-06-20T12:17:54.190Z,10.00
2019-06-20T12:20:25.086Z,8.73
2019-06-20T12:22:55.757Z,8.17
2019-06-20T12:25:26.626Z,10.93
2019-06-20T12:27:57.223Z,15.37
2019-06-20T12:30:28.310Z,10.20
2019-06-20T12:32:59.135Z,11.53
2019-06-20T12:35:29.789Z,10.43
2019-06-20T12:38:00.536Z,10.03
2019-06-20T12:40:31.194Z,9.00
2019-06-20T12:43:01.958Z,10.03
2019-06-20T12:45:32.697Z,10.70
2019-06-20T12:48:03.441Z,10.73
2019-06-20T12:50:34.052Z,8.53
2019-06-20T12:53:04.557Z,9.87
2019-06-20T12:55:35.078Z,10.07
2019-06-20T12:58:05.764Z,9.17
2019-06-20T13:00:38.897Z,10.73
2019-06-20T13:03:09.346Z,10.83
2019-06-20T13:05:41.839Z,8.77
2019-06-20T13:08:13.733Z,9.33
2019-06-20T13:10:46.126Z,9.60
2019-06-20T13:13:16.824Z,12.13
2019-06-20T13:15:48.975Z,9.90
2019-06-20T13:18:20.190Z,11.10
2019-06-20T13:20:51.153Z,9.47
2019-06-20T13:23:21.923Z,9.60
2019-06-20T13:25:52.655Z,9.60
2019-06-20T13:28:23.305Z,8.93
2019-06-20T13:30:54.242Z,9.37
2019-06-20T13:33:24.801Z,9.03
2019-06-20T13:35:55.593Z,9.53
2019-06-20T13:38:26.954Z,22.53
2019-06-20T13:40:58.198Z,13.73
2019-06-20T13:43:30.640Z,10.73
2019-06-20T13:46:01.723Z,9.00
2019-06-20T13:48:32.597Z,9.63
2019-06-20T13:51:03.180Z,10.53
2019-06-20T13:53:33.625Z,11.77
2019-06-20T13:56:04.278Z,10.60
2019-06-20T13:58:34.966Z,10.83
2019-06-20T14:01:05.734Z,9.00
2019-06-20T14:03:36.610Z,8.37
2019-06-20T14:06:07.456Z,8.77
2019-06-20T14:08:38.164Z,9.20
2019-06-20T14:11:09.201Z,10.30
2019-06-20T14:13:41.084Z,12.73
2019-06-20T14:16:12.144Z,8.77
2019-06-20T14:18:44.444Z,8.27
2019-06-20T14:21:15.575Z,7.63
2019-06-20T14:23:46.403Z,7.77
2019-06-20T14:26:17.788Z,7.60
2019-06-20T14:28:49.352Z,8.13
2019-06-20T14:31:20.176Z,7.93
2019-06-20T14:33:51.140Z,8.17
2019-06-20T14:36:21.883Z,9.20
2019-06-20T14:38:53.847Z,8.80
2019-06-20T14:41:24.712Z,11.17
2019-06-20T14:43:55.631Z,9.03
2019-06-20T14:46:26.419Z,9.57
2019-06-20T14:48:57.458Z,8.63
2019-06-20T14:51:28.524Z,9.60
2019-06-20T14:53:59.201Z,9.50
2019-06-20T14:56:32.505Z,10.57
2019-06-20T14:59:05.340Z,9.60
2019-06-20T15:01:35.886Z,9.90
2019-06-20T15:04:09.506Z,10.43
2019-06-20T15:06:40.618Z,9.93
2019-06-20T15:09:11.985Z,10.47
2019-06-20T15:11:42.738Z,9.53
2019-06-20T15:14:13.398Z,9.70
2019-06-20T15:16:46.216Z,10.47
2019-06-20T15:19:16.597Z,10.20
2019-06-20T15:21:48.510Z,9.80
2019-06-20T15:24:21.111Z,10.43
2019-06-20T15:26:52.412Z,10.23
2019-06-20T15:29:23.449Z,9.70
2019-06-20T15:31:54.830Z,9.20
2019-06-20T15:34:30.196Z,9.57
2019-06-20T15:37:00.981Z,9.13
2019-06-20T15:39:34.170Z,10.13
2019-06-20T15:42:05.263Z,8.87
2019-06-20T15:44:36.445Z,9.73
2019-06-20T15:47:07.813Z,9.77
2019-06-20T15:49:39.740Z,10.27
2019-06-20T15:52:10.688Z,10.80
2019-06-20T15:54:41.329Z,10.03
2019-06-20T15:57:11.887Z,10.40
2019-06-20T15:59:42.738Z,8.53
2019-06-20T16:02:13.807Z,10.37
2019-06-20T16:04:44.608Z,10.30
2019-06-20T16:07:18.551Z,8.57
2019-06-20T16:09:49.571Z,9.27
2019-06-20T16:12:20.623Z,9.27
2019-06-20T16:14:52.086Z,9.53
2019-06-20T16:17:22.903Z,8.50
2019-06-20T16:19:53.749Z,8.00
2019-06-20T16:22:24.410Z,8.10
2019-06-20T16:24:55.320Z,9.60
2019-06-20T16:27:27.280Z,11.03
2019-06-20T16:29:58.874Z,10.20
2019-06-20T16:32:30.022Z,9.30
2019-06-20T16:35:01.227Z,9.77
2019-06-20T16:37:33.608Z,8.63
2019-06-20T16:40:04.218Z,8.50
2019-06-20T16:42:34.784Z,7.43
2019-06-20T16:45:06.221Z,8.13
2019-06-20T16:47:36.858Z,8.80
2019-06-20T16:50:08.132Z,9.37
2019-06-20T16:52:39.154Z,7.87
2019-06-20T16:55:09.738Z,8.83
2019-06-20T16:57:40.850Z,8.63
2019-06-20T17:00:12.233Z,8.67
2019-06-20T17:02:43.088Z,8.50
2019-06-20T17:05:14.360Z,8.77
2019-06-20T17:07:45.069Z,7.70
2019-06-20T17:10:22.713Z,7.90
2019-06-20T17:12:53.340Z,7.77
2019-06-20T17:15:25.982Z,7.40
2019-06-20T17:17:56.939Z,7.57
2019-06-20T17:20:28.231Z,7.83
2019-06-20T17:22:58.721Z,7.00
2019-06-20T17:25:29.514Z,7.73
2019-06-20T17:28:00.599Z,7.27
2019-06-20T17:30:32.028Z,7.67
2019-06-20T17:33:02.819Z,7.83
2019-06-20T17:35:33.423Z,10.80
2019-06-20T17:38:04.311Z,7.00
2019-06-20T17:40:35.049Z,8.93
2019-06-20T17:43:05.775Z,7.37
2019-06-20T17:45:36.816Z,8.93
2019-06-20T17:48:07.563Z,8.23
2019-06-20T17:50:38.475Z,6.43
2019-06-20T17:53:09.792Z,8.00
2019-06-20T17:55:40.792Z,7.43
2019-06-20T17:58:11.564Z,7.20
2019-06-20T18:00:42.305Z,7.37
2019-06-20T18:03:13.407Z,7.83
2019-06-20T18:05:44.900Z,8.03
2019-06-20T18:08:15.841Z,8.60
2019-06-20T18:10:47.434Z,7.30
2019-06-20T18:13:18.643Z,7.30
2019-06-20T18:15:49.595Z,6.73
2019-06-20T18:18:20.806Z,7.10
2019-06-20T18:20:51.554Z,7.50
2019-06-20T18:23:22.486Z,6.80
2019-06-20T18:26:03.330Z,7.30
2019-06-20T18:28:33.903Z,6.97
2019-06-20T18:31:04.079Z,6.30
2019-06-20T18:33:35.893Z,7.00
2019-06-20T18:36:06.223Z,7.07
2019-06-20T18:38:37.181Z,12.83
2019-06-20T18:41:08.879Z,7.20
2019-06-20T18:43:39.421Z,5.57
2019-06-20T18:46:10.428Z,4.90
2019-06-20T18:48:40.867Z,5.73
2019-06-20T18:51:11.349Z,4.83
2019-06-20T18:53:41.978Z,5.13
2019-06-20T18:56:12.450Z,5.00
2019-06-20T18:58:42.947Z,4.80
2019-06-20T19:01:13.397Z,5.03
2019-06-20T19:03:44.246Z,5.00
2019-06-20T19:06:14.859Z,4.70
2019-06-20T19:08:45.366Z,6.27
2019-06-20T19:11:15.953Z,5.63
2019-06-20T19:13:46.634Z,6.93
2019-06-20T19:16:17.105Z,8.03
2019-06-20T19:18:47.805Z,7.57
2019-06-20T19:21:18.373Z,11.30
2019-06-20T19:23:48.977Z,11.07
2019-06-20T19:26:19.435Z,12.73
2019-06-20T19:28:49.990Z,11.10
2019-06-20T19:31:21.618Z,14.40
2019-06-20T19:33:52.212Z,9.67
2019-06-20T19:36:22.658Z,7.47
2019-06-20T19:38:53.047Z,8.20
2019-06-20T19:41:23.416Z,8.43
2019-06-20T19:43:53.699Z,7.40
2019-06-20T19:46:24.056Z,8.93
2019-06-20T19:48:54.375Z,7.33
2019-06-20T19:51:24.709Z,8.37
2019-06-20T19:53:55.096Z,6.60
2019-06-20T19:56:25.638Z,10.40
2019-06-20T19:58:55.918Z,8.13
2019-06-20T20:01:26.257Z,6.83
2019-06-20T20:03:56.552Z,6.93
2019-06-20T20:06:26.787Z,9.70
2019-06-20T20:08:57.013Z,6.87
2019-06-20T20:11:28.577Z,6.60
2019-06-20T20:14:24.837Z,6.37
2019-06-20T20:16:55.526Z,6.43
2019-06-20T20:19:28.088Z,6.37
2019-06-20T20:21:58.489Z,9.73
2019-06-20T20:24:29.010Z,6.60
2019-06-20T20:26:59.323Z,6.63
2019-06-20T20:29:29.722Z,7.50
2019-06-20T20:32:01.813Z,7.60
2019-06-20T20:34:32.407Z,6.80
2019-06-20T20:37:02.778Z,7.13
2019-06-20T20:39:33.152Z,7.90
2019-06-20T20:42:03.542Z,8.13
2019-06-20T20:44:33.959Z,8.70
2019-06-20T20:47:04.456Z,7.93
2019-06-20T20:49:34.816Z,9.27
2019-06-20T20:52:05.381Z,7.77
2019-06-20T20:54:35.762Z,9.47
2019-06-20T20:57:06.155Z,8.07
2019-06-20T20:59:36.606Z,7.93
2019-06-20T21:02:08.601Z,9.43
2019-06-20T21:04:40.390Z,9.33
2019-06-20T21:07:11.006Z,8.80
2019-06-20T21:09:41.805Z,7.73
2019-06-20T21:12:12.626Z,7.30
2019-06-20T21:14:43.046Z,10.63
2019-06-20T21:17:14.297Z,8.70
2019-06-20T21:19:45.779Z,8.20
2019-06-20T21:22:16.268Z,11.17
2019-06-20T21:24:46.880Z,8.00
2019-06-20T21:27:17.347Z,8.00
2019-06-20T21:29:47.973Z,9.63
2019-06-20T21:32:18.615Z,9.73
2019-06-20T21:34:49.492Z,9.77
2019-06-20T21:37:20.229Z,9.30
2019-06-20T21:39:50.643Z,11.77
2019-06-20T21:42:21.270Z,12.40
2019-06-20T21:44:51.721Z,10.23
2019-06-20T21:47:22.839Z,12.63
2019-06-20T21:49:53.235Z,11.57
2019-06-20T21:52:23.639Z,11.20
2019-06-20T21:54:54.051Z,14.63
2019-06-20T21:57:24.439Z,10.60
2019-06-20T21:59:54.869Z,10.10
2019-06-20T22:02:25.316Z,13.60
2019-06-20T22:04:55.673Z,10.80
2019-06-20T22:07:26.072Z,13.43
2019-06-20T22:09:56.501Z,11.60
2019-06-20T22:12:26.866Z,11.23
2019-06-20T22:14:57.548Z,11.40
2019-06-20T22:17:27.960Z,11.33
2019-06-20T22:19:58.407Z,11.73
2019-06-20T22:22:28.859Z,10.80
2019-06-20T22:24:59.253Z,10.23
2019-06-20T22:27:29.805Z,9.33
2019-06-20T22:30:03.501Z,9.60
2019-06-20T22:32:32.128Z,8.93
2019-06-20T22:35:02.656Z,10.73
2019-06-20T22:37:33.536Z,8.50
2019-06-20T22:40:04.464Z,8.60
2019-06-20T22:42:34.977Z,7.77
2019-06-20T22:45:07.062Z,8.30
2019-06-20T22:47:37.972Z,8.53
2019-06-20T22:50:09.413Z,8.30
2019-06-20T22:52:39.811Z,6.50
2019-06-20T22:55:10.478Z,9.03
2019-06-20T22:57:40.886Z,7.73
2019-06-20T23:00:12.125Z,8.90
2019-06-20T23:02:42.841Z,7.50
2019-06-20T23:05:13.413Z,7.37
2019-06-20T23:07:44.240Z,8.33
2019-06-20T23:10:14.917Z,7.93
2019-06-20T23:12:45.284Z,8.03
2019-06-20T23:15:16.905Z,8.13
2019-06-20T23:17:47.339Z,8.77
2019-06-20T23:20:18.225Z,8.00
2019-06-20T23:22:50.366Z,7.67
2019-06-20T23:25:21.134Z,7.27
2019-06-20T23:27:52.202Z,8.47
2019-06-20T23:30:23.425Z,10.10
2019-06-20T23:32:54.190Z,8.00
2019-06-20T23:35:24.762Z,7.97
2019-06-20T23:37:55.128Z,8.77
2019-06-20T23:40:25.888Z,9.70
2019-06-20T23:42:56.362Z,9.93
2019-06-20T23:45:26.976Z,9.40
2019-06-20T23:47:59.323Z,9.93
2019-06-20T23:50:30.070Z,8.50
2019-06-20T23:53:08.470Z,9.57
2019-06-20T23:55:39.142Z,9.90
2019-06-20T23:58:10.065Z,10.27
